Elisabeth — LHEA — position and weather

sailwx.info

Track history (hours):
 
Tides and Currents Weather Stations Pressure Air Temp Water Temp Dewpoint Dewpoint Depression Visibility Wind Speed Wind Dir Waves Ship Positions

Elisabeth

Last reported at 2017-Mar-30 06:33 UTC. Time now 2017-Mar-30 06:41 UTC.
Position N 60°24' E 005°16'.

Length 61 m; draft 5.6 m.

Type: Cargo ship. MMSI: 259166000.

Date/timePositionNaut miles runAvg speedWind from/ knotsBaromVisibWave heightAir tempDewpointWater temp
2017-Mar-30 06:33N 60°24' E 005°16'2 1.8
2017-Mar-30 05:33N 60°24' E 005°13'1110.5
2017-Mar-30 04:33N 60°31' E 004°57'1211.7
2017-Mar-30 03:33N 60°42' E 004°49'1110.8
2017-Mar-30 02:33N 60°53' E 004°46'1211.7
2017-Mar-30 01:33N 61°04' E 004°44'1111.3
2017-Mar-30 00:33N 61°15' E 004°44'1212.1
2017-Mar-29 23:33N 61°27' E 004°54'2410.5
2017-Mar-29 21:18N 61°49' E 005°10'5 6.7
2017-Mar-29 20:33N 61°54' E 005°08'1110.5
2017-Mar-29 19:33N 62°04' E 005°07'1010.1
2017-Mar-29 18:33N 62°14' E 005°12'1212.0
2017-Mar-29 17:33N 62°18' E 005°36'1111.0
2017-Mar-29 16:33N 62°26' E 005°54'8 7.7
2017-Mar-29 15:33N 62°29' E 006°09'0 0.0
2017-Mar-29 14:33N 62°29' E 006°09'4 4.0
2017-Mar-29 13:32N 62°33' E 006°09'1212.5
2017-Mar-29 12:33N 62°42' E 006°28'1312.6
2017-Mar-29 11:33N 62°52' E 006°42'1211.9
2017-Mar-29 10:33N 63°04' E 006°47'1212.3
2017-Mar-29 09:33N 63°16' E 006°49'226 6.8
2017-Mar-28 00:33N 66°27' E 011°35'7 7.4
2017-Mar-27 23:34N 66°24' E 011°52'7 6.9
2017-Mar-27 22:34N 66°28' E 012°07'2 2.4
2017-Mar-27 21:33N 66°30' E 012°06'0 0.0
2017-Mar-27 20:33N 66°30' E 012°06'0 0.0
2017-Mar-27 19:34N 66°30' E 012°06'0 0.0
2017-Mar-27 18:33N 66°30' E 012°06'0 0.0
2017-Mar-27 17:33N 66°30' E 012°06'0 0.0
2017-Mar-27 16:33N 66°30' E 012°06'0 0.0
2017-Mar-27 15:33N 66°30' E 012°06'0 0.0
2017-Mar-27 14:33N 66°30' E 012°06'0 0.0
2017-Mar-27 13:34N 66°30' E 012°06'0 0.0
2017-Mar-27 12:33N 66°30' E 012°06'0 0.0
2017-Mar-27 11:33N 66°30' E 012°06'0 0.0
2017-Mar-27 10:33N 66°30' E 012°06'0 0.0
2017-Mar-27 09:34N 66°30' E 012°06'0 0.0
2017-Mar-27 08:33N 66°30' E 012°06'0 0.0
2017-Mar-27 07:33N 66°30' E 012°06'0 0.0
2017-Mar-27 06:34N 66°30' E 012°06'0 0.0
2017-Mar-27 05:33N 66°30' E 012°06'0 0.0
2017-Mar-27 04:34N 66°30' E 012°06'0 0.0
2017-Mar-27 03:34N 66°30' E 012°06'0 0.0
2017-Mar-27 02:33N 66°30' E 012°06'0 0.0
2017-Mar-27 01:33N 66°30' E 012°06'0 0.0
2017-Mar-27 00:33N 66°30' E 012°06'0 0.0
2017-Mar-26 23:34N 66°30' E 012°06'0 0.0
2017-Mar-26 22:33N 66°30' E 012°06'0 0.0
2017-Mar-26 21:33N 66°30' E 012°06'0 0.0
2017-Mar-26 20:34N 66°30' E 012°06'0 0.0
2017-Mar-26 19:34N 66°30' E 012°06'0 0.0
2017-Mar-26 18:33N 66°30' E 012°06'0 0.0
2017-Mar-26 17:33N 66°30' E 012°06'0 0.0
2017-Mar-26 16:33N 66°30' E 012°06'0 0.0
2017-Mar-26 15:33N 66°30' E 012°06'0 0.0
2017-Mar-26 14:33N 66°30' E 012°06'2 1.9
2017-Mar-26 13:33N 66°28' E 012°08'1111.2
2017-Mar-26 12:33N 66°37' E 012°26'1010.2
2017-Mar-26 11:33N 66°41' E 012°50'1110.8
2017-Mar-26 10:33N 66°46' E 013°14'1110.7
2017-Mar-26 09:33N 66°55' E 013°29'1010.1
2017-Mar-26 08:33N 67°02' E 013°48'1111.5
2017-Mar-26 07:33N 67°11' E 014°05'9 9.0
2017-Mar-26 06:34N 67°17' E 014°23'0 0.0
2017-Mar-26 05:34N 67°17' E 014°23'0 0.0
2017-Mar-26 04:33N 67°17' E 014°23'0 0.0
2017-Mar-26 03:33N 67°17' E 014°23'0 0.0
2017-Mar-26 02:34N 67°17' E 014°23'0 0.0
2017-Mar-26 01:34N 67°17' E 014°23'0 0.0
2017-Mar-26 00:33N 67°17' E 014°23'0 0.0
2017-Mar-25 23:34N 67°17' E 014°23'0 0.0
2017-Mar-25 22:33N 67°17' E 014°23'0 0.0
2017-Mar-25 21:33N 67°17' E 014°23'0 0.0
2017-Mar-25 20:33N 67°17' E 014°23'0 0.0
2017-Mar-25 19:33N 67°17' E 014°23'0 0.0
2017-Mar-25 18:33N 67°17' E 014°23'0 0.0
2017-Mar-25 17:34N 67°17' E 014°23'0 0.0
2017-Mar-25 16:33N 67°17' E 014°23'0 0.1
2017-Mar-25 15:33N 67°17' E 014°22'10 9.6
2017-Mar-25 14:33N 67°26' E 014°28'1110.9
2017-Mar-25 13:33N 67°37' E 014°32'1111.0
2017-Mar-25 12:33N 67°48' E 014°32'1110.6
2017-Mar-25 11:33N 67°57' E 014°48'1010.6
2017-Mar-25 10:33N 68°05' E 015°08'1110.7
2017-Mar-25 09:33N 68°11' E 015°30'1110.7
2017-Mar-25 08:33N 68°19' E 015°52'1110.9
2017-Mar-25 07:33N 68°28' E 016°06'10 9.8
2017-Mar-25 06:33N 68°33' E 016°29'1111.3
2017-Mar-25 05:33N 68°43' E 016°43'1111.2
2017-Mar-25 04:33N 68°53' E 016°58'1111.1
2017-Mar-25 03:33N 69°02' E 017°17'1110.7
2017-Mar-25 02:33N 69°08' E 017°42'9 8.6
2017-Mar-25 01:33N 69°14' E 017°58'10 9.8
2017-Mar-25 00:33N 69°24' E 018°06'10 9.8
2017-Mar-24 23:33N 69°31' E 018°24'1111.0
2017-Mar-24 22:34N 69°36' E 018°52'9 9.2
2017-Mar-24 21:33N 69°44' E 019°04'1110.8
2017-Mar-24 20:33N 69°49' E 019°31'1111.2
2017-Mar-24 19:33N 69°55' E 019°58'1110.8
2017-Mar-24 18:33N 70°00' E 020°26'1110.6
2017-Mar-24 17:34N 70°04' E 020°55'1111.3
2017-Mar-24 16:33N 70°14' E 021°10'1211.7
2017-Mar-24 15:33N 70°22' E 021°36'1110.9
2017-Mar-24 14:33N 70°26' E 022°06'1110.7
2017-Mar-24 13:33N 70°29' E 022°37'1010.3
2017-Mar-24 12:33N 70°34' E 023°05'10 9.7
2017-Mar-24 11:33N 70°38' E 023°30'3 2.6
2017-Mar-24 10:32N 70°38' E 023°38'0 0.0
2017-Mar-24 09:33N 70°38' E 023°38'0 0.0
2017-Mar-24 08:33N 70°38' E 023°38'0 0.0
2017-Mar-24 07:33N 70°38' E 023°38'0 0.0
2017-Mar-24 06:33N 70°38' E 023°38'0 0.0
2017-Mar-24 05:33N 70°38' E 023°38'0 0.0
2017-Mar-24 04:33N 70°38' E 023°38'0 0.0
2017-Mar-24 03:34N 70°38' E 023°38'0 0.0
2017-Mar-24 02:33N 70°38' E 023°38'0 0.0
2017-Mar-24 01:33N 70°38' E 023°38'0 0.0
2017-Mar-24 00:33N 70°38' E 023°38'0 0.0
2017-Mar-23 23:33N 70°38' E 023°38'2 1.6
2017-Mar-23 22:33N 70°38' E 023°34'10 9.6
2017-Mar-23 21:33N 70°47' E 023°41'1010.1
2017-Mar-23 20:33N 70°53' E 024°06'1010.1
2017-Mar-23 19:33N 71°02' E 024°24'1110.7
2017-Mar-23 18:33N 71°11' E 024°09'1211.9
2017-Mar-23 17:33N 71°17' E 023°37'  
Track history (hours):
 
Tides and Currents Weather Stations Pressure Air Temp Water Temp Dewpoint Dewpoint Depression Visibility Wind Speed Wind Dir Waves Ship Positions

Elisabeth

Last reported at 2017-Mar-30 06:33 UTC. Time now 2017-Mar-30 06:41 UTC.
Position N 60°24' E 005°16'.

Length 61 m; draft 5.6 m.

Type: Cargo ship. MMSI: 259166000.

Date/timePositionNaut miles runAvg speedWind from/ knotsBaromVisibWave heightAir tempDewpointWater temp
2017-Mar-30 06:33N 60°24' E 005°16'2 1.8
2017-Mar-30 05:33N 60°24' E 005°13'1110.5
2017-Mar-30 04:33N 60°31' E 004°57'1211.7
2017-Mar-30 03:33N 60°42' E 004°49'1110.8
2017-Mar-30 02:33N 60°53' E 004°46'1211.7
2017-Mar-30 01:33N 61°04' E 004°44'1111.3
2017-Mar-30 00:33N 61°15' E 004°44'1212.1
2017-Mar-29 23:33N 61°27' E 004°54'2410.5
2017-Mar-29 21:18N 61°49' E 005°10'5 6.7
2017-Mar-29 20:33N 61°54' E 005°08'1110.5
2017-Mar-29 19:33N 62°04' E 005°07'1010.1
2017-Mar-29 18:33N 62°14' E 005°12'1212.0
2017-Mar-29 17:33N 62°18' E 005°36'1111.0
2017-Mar-29 16:33N 62°26' E 005°54'8 7.7
2017-Mar-29 15:33N 62°29' E 006°09'0 0.0
2017-Mar-29 14:33N 62°29' E 006°09'4 4.0
2017-Mar-29 13:32N 62°33' E 006°09'1212.5
2017-Mar-29 12:33N 62°42' E 006°28'1312.6
2017-Mar-29 11:33N 62°52' E 006°42'1211.9
2017-Mar-29 10:33N 63°04' E 006°47'1212.3
2017-Mar-29 09:33N 63°16' E 006°49'226 6.8
2017-Mar-28 00:33N 66°27' E 011°35'7 7.4
2017-Mar-27 23:34N 66°24' E 011°52'7 6.9
2017-Mar-27 22:34N 66°28' E 012°07'2 2.4
2017-Mar-27 21:33N 66°30' E 012°06'0 0.0
2017-Mar-27 20:33N 66°30' E 012°06'0 0.0
2017-Mar-27 19:34N 66°30' E 012°06'0 0.0
2017-Mar-27 18:33N 66°30' E 012°06'0 0.0
2017-Mar-27 17:33N 66°30' E 012°06'0 0.0
2017-Mar-27 16:33N 66°30' E 012°06'0 0.0
2017-Mar-27 15:33N 66°30' E 012°06'0 0.0
2017-Mar-27 14:33N 66°30' E 012°06'0 0.0
2017-Mar-27 13:34N 66°30' E 012°06'0 0.0
2017-Mar-27 12:33N 66°30' E 012°06'0 0.0
2017-Mar-27 11:33N 66°30' E 012°06'0 0.0
2017-Mar-27 10:33N 66°30' E 012°06'0 0.0
2017-Mar-27 09:34N 66°30' E 012°06'0 0.0
2017-Mar-27 08:33N 66°30' E 012°06'0 0.0
2017-Mar-27 07:33N 66°30' E 012°06'0 0.0
2017-Mar-27 06:34N 66°30' E 012°06'0 0.0
2017-Mar-27 05:33N 66°30' E 012°06'0 0.0
2017-Mar-27 04:34N 66°30' E 012°06'0 0.0
2017-Mar-27 03:34N 66°30' E 012°06'0 0.0
2017-Mar-27 02:33N 66°30' E 012°06'0 0.0
2017-Mar-27 01:33N 66°30' E 012°06'0 0.0
2017-Mar-27 00:33N 66°30' E 012°06'0 0.0
2017-Mar-26 23:34N 66°30' E 012°06'0 0.0
2017-Mar-26 22:33N 66°30' E 012°06'0 0.0
2017-Mar-26 21:33N 66°30' E 012°06'0 0.0
2017-Mar-26 20:34N 66°30' E 012°06'0 0.0
2017-Mar-26 19:34N 66°30' E 012°06'0 0.0
2017-Mar-26 18:33N 66°30' E 012°06'0 0.0
2017-Mar-26 17:33N 66°30' E 012°06'0 0.0
2017-Mar-26 16:33N 66°30' E 012°06'0 0.0
2017-Mar-26 15:33N 66°30' E 012°06'0 0.0
2017-Mar-26 14:33N 66°30' E 012°06'2 1.9
2017-Mar-26 13:33N 66°28' E 012°08'1111.2
2017-Mar-26 12:33N 66°37' E 012°26'1010.2
2017-Mar-26 11:33N 66°41' E 012°50'1110.8
2017-Mar-26 10:33N 66°46' E 013°14'1110.7
2017-Mar-26 09:33N 66°55' E 013°29'1010.1
2017-Mar-26 08:33N 67°02' E 013°48'1111.5
2017-Mar-26 07:33N 67°11' E 014°05'9 9.0
2017-Mar-26 06:34N 67°17' E 014°23'0 0.0
2017-Mar-26 05:34N 67°17' E 014°23'0 0.0
2017-Mar-26 04:33N 67°17' E 014°23'0 0.0
2017-Mar-26 03:33N 67°17' E 014°23'0 0.0
2017-Mar-26 02:34N 67°17' E 014°23'0 0.0
2017-Mar-26 01:34N 67°17' E 014°23'0 0.0
2017-Mar-26 00:33N 67°17' E 014°23'0 0.0
2017-Mar-25 23:34N 67°17' E 014°23'0 0.0
2017-Mar-25 22:33N 67°17' E 014°23'0 0.0
2017-Mar-25 21:33N 67°17' E 014°23'0 0.0
2017-Mar-25 20:33N 67°17' E 014°23'0 0.0
2017-Mar-25 19:33N 67°17' E 014°23'0 0.0
2017-Mar-25 18:33N 67°17' E 014°23'0 0.0
2017-Mar-25 17:34N 67°17' E 014°23'0 0.0
2017-Mar-25 16:33N 67°17' E 014°23'0 0.1
2017-Mar-25 15:33N 67°17' E 014°22'10 9.6
2017-Mar-25 14:33N 67°26' E 014°28'1110.9
2017-Mar-25 13:33N 67°37' E 014°32'1111.0
2017-Mar-25 12:33N 67°48' E 014°32'1110.6
2017-Mar-25 11:33N 67°57' E 014°48'1010.6
2017-Mar-25 10:33N 68°05' E 015°08'1110.7
2017-Mar-25 09:33N 68°11' E 015°30'1110.7
2017-Mar-25 08:33N 68°19' E 015°52'1110.9
2017-Mar-25 07:33N 68°28' E 016°06'10 9.8
2017-Mar-25 06:33N 68°33' E 016°29'1111.3
2017-Mar-25 05:33N 68°43' E 016°43'1111.2
2017-Mar-25 04:33N 68°53' E 016°58'1111.1
2017-Mar-25 03:33N 69°02' E 017°17'1110.7
2017-Mar-25 02:33N 69°08' E 017°42'9 8.6
2017-Mar-25 01:33N 69°14' E 017°58'10 9.8
2017-Mar-25 00:33N 69°24' E 018°06'10 9.8
2017-Mar-24 23:33N 69°31' E 018°24'1111.0
2017-Mar-24 22:34N 69°36' E 018°52'9 9.2
2017-Mar-24 21:33N 69°44' E 019°04'1110.8
2017-Mar-24 20:33N 69°49' E 019°31'1111.2
2017-Mar-24 19:33N 69°55' E 019°58'1110.8
2017-Mar-24 18:33N 70°00' E 020°26'1110.6
2017-Mar-24 17:34N 70°04' E 020°55'1111.3
2017-Mar-24 16:33N 70°14' E 021°10'1211.7
2017-Mar-24 15:33N 70°22' E 021°36'1110.9
2017-Mar-24 14:33N 70°26' E 022°06'1110.7
2017-Mar-24 13:33N 70°29' E 022°37'1010.3
2017-Mar-24 12:33N 70°34' E 023°05'10 9.7
2017-Mar-24 11:33N 70°38' E 023°30'3 2.6
2017-Mar-24 10:32N 70°38' E 023°38'0 0.0
2017-Mar-24 09:33N 70°38' E 023°38'0 0.0
2017-Mar-24 08:33N 70°38' E 023°38'0 0.0
2017-Mar-24 07:33N 70°38' E 023°38'0 0.0
2017-Mar-24 06:33N 70°38' E 023°38'0 0.0
2017-Mar-24 05:33N 70°38' E 023°38'0 0.0
2017-Mar-24 04:33N 70°38' E 023°38'0 0.0
2017-Mar-24 03:34N 70°38' E 023°38'0 0.0
2017-Mar-24 02:33N 70°38' E 023°38'0 0.0
2017-Mar-24 01:33N 70°38' E 023°38'0 0.0
2017-Mar-24 00:33N 70°38' E 023°38'0 0.0
2017-Mar-23 23:33N 70°38' E 023°38'2 1.6
2017-Mar-23 22:33N 70°38' E 023°34'10 9.6
2017-Mar-23 21:33N 70°47' E 023°41'1010.1
2017-Mar-23 20:33N 70°53' E 024°06'1010.1
2017-Mar-23 19:33N 71°02' E 024°24'1110.7
2017-Mar-23 18:33N 71°11' E 024°09'1211.9
2017-Mar-23 17:33N 71°17' E 023°37'  

Dump ship's entire track history